Time;durP1;ratioP1;P1;durP2;ratioP2;P2;SDS_P1;SDS_P2;PMS_P1;PMS_P2;Temp;Humidity;BMP_temperature;BMP_pressure;BME280_temperature;BME280_humidity;BME280_pressure;Samples;Min_cycle;Max_cycle;Signal;HPM_P1;HPM_P2
2022/11/25 00:00:44;;;;;;;60.40;30.83;;;;;;;;;;760672;183;919044;-60
2022/11/25 00:03:10;;;;;;;60.73;33.87;;;;;;;;;;746130;186;919039;-65
2022/11/25 00:05:36;;;;;;;49.90;28.03;;;;;;;;;;761477;183;918682;-64
2022/11/25 00:08:02;;;;;;;55.33;28.67;;;;;;;;;;772580;181;915562;-64
2022/11/25 00:10:28;;;;;;;54.63;29.77;;;;;;;;;;770895;181;815999;-64
2022/11/25 00:12:54;;;;;;;47.40;28.40;;;;;;;;;;770431;180;917575;-64
2022/11/25 00:15:19;;;;;;;48.33;27.87;;;;;;;;;;775832;180;919149;-60
2022/11/25 00:17:45;;;;;;;65.62;32.63;;;;;;;;;;767484;181;922318;-64
2022/11/25 00:20:11;;;;;;;60.17;31.80;;;;;;;;;;769548;180;920251;-64
2022/11/25 00:22:37;;;;;;;62.70;29.20;;;;;;;;;;774271;180;927384;-61
2022/11/25 00:25:03;;;;;;;50.77;30.60;;;;;;;;;;768858;179;927376;-64
2022/11/25 00:27:29;;;;;;;59.20;33.00;;;;;;;;;;763677;179;920798;-61
2022/11/25 00:29:55;;;;;;;56.07;29.77;;;;;;;;;;766677;180;998302;-67
2022/11/25 00:32:21;;;;;;;58.53;32.50;;;;;;;;;;778513;180;915379;-63
2022/11/25 00:34:47;;;;;;;61.90;34.17;;;;;;;;;;770438;180;919141;-63
2022/11/25 00:37:12;;;;;;;61.93;31.43;;;;;;;;;;768290;180;919621;-63
2022/11/25 00:39:38;;;;;;;58.50;33.63;;;;;;;;;;777032;179;916018;-65
2022/11/25 00:44:38;;;;;;;61.00;31.67;;;;;;;;;;765079;180;916088;-63
2022/11/25 00:47:03;;;;;;;62.37;35.63;;;;;;;;;;754010;183;918706;-63
2022/11/25 00:49:29;;;;;;;71.17;38.53;;;;;;;;;;764779;183;815430;-62
2022/11/25 00:51:55;;;;;;;68.47;38.37;;;;;;;;;;765312;180;817017;-67
2022/11/25 00:54:21;;;;;;;71.17;37.70;;;;;;;;;;764700;181;846962;-63
2022/11/25 00:56:47;;;;;;;75.62;40.15;;;;;;;;;;774151;180;857842;-63
2022/11/25 00:59:13;;;;;;;71.53;38.27;;;;;;;;;;768803;181;915354;-63
2022/11/25 01:01:39;;;;;;;79.78;39.55;;;;;;;;;;768182;180;919055;-63
2022/11/25 01:04:04;;;;;;;70.97;38.50;;;;;;;;;;775194;180;918619;-63
2022/11/25 01:06:30;;;;;;;80.33;38.90;;;;;;;;;;755640;183;918568;-63
2022/11/25 01:08:56;;;;;;;72.43;39.53;;;;;;;;;;759502;181;918729;-65
2022/11/25 01:11:23;;;;;;;64.87;33.13;;;;;;;;;;768437;180;919427;-64
2022/11/25 01:13:48;;;;;;;57.30;33.73;;;;;;;;;;774403;179;921972;-65
2022/11/25 01:16:14;;;;;;;68.07;36.47;;;;;;;;;;766498;180;918941;-62
2022/11/25 01:18:40;;;;;;;82.77;34.60;;;;;;;;;;759989;180;1020422;-63
2022/11/25 01:21:07;;;;;;;68.93;34.53;;;;;;;;;;758540;184;939715;-65
2022/11/25 01:23:33;;;;;;;75.70;35.67;;;;;;;;;;760165;182;919241;-61
2022/11/25 01:26:01;;;;;;;73.57;37.70;;;;;;;;;;770089;181;816261;-61
2022/11/25 01:28:27;;;;;;;56.20;32.40;;;;;;;;;;766463;179;921642;-61
2022/11/25 01:30:59;;;;;;;69.47;34.87;;;;;;;;;;767746;181;918322;-64
2022/11/25 01:33:25;;;;;;;63.73;35.77;;;;;;;;;;768805;180;919135;-63
2022/11/25 01:35:50;;;;;;;64.30;36.00;;;;;;;;;;774419;179;919140;-61
2022/11/25 01:38:16;;;;;;;67.20;34.78;;;;;;;;;;775213;180;908277;-63
2022/11/25 01:40:42;;;;;;;74.50;36.87;;;;;;;;;;767236;180;917293;-60
2022/11/25 01:43:11;;;;;;;81.87;38.57;;;;;;;;;;772072;179;919405;-60
2022/11/25 01:45:37;;;;;;;73.97;36.63;;;;;;;;;;768754;180;917501;-63
2022/11/25 01:48:04;;;;;;;71.67;37.47;;;;;;;;;;770079;182;916934;-61
2022/11/25 01:50:30;;;;;;;71.35;37.28;;;;;;;;;;758883;180;919287;-60
2022/11/25 01:52:55;;;;;;;67.60;35.80;;;;;;;;;;753145;184;917590;-64
2022/11/25 01:55:21;;;;;;;84.57;39.23;;;;;;;;;;770327;180;920694;-64
2022/11/25 01:57:49;;;;;;;74.70;34.63;;;;;;;;;;771532;180;932855;-63
2022/11/25 02:00:15;;;;;;;64.33;32.57;;;;;;;;;;771580;180;918669;-62
2022/11/25 02:02:41;;;;;;;75.57;38.87;;;;;;;;;;773107;180;917841;-60
2022/11/25 02:05:07;;;;;;;70.17;34.87;;;;;;;;;;767969;180;943005;-62
2022/11/25 02:07:33;;;;;;;63.10;36.13;;;;;;;;;;770031;179;918817;-63
2022/11/25 02:09:59;;;;;;;77.90;37.77;;;;;;;;;;771212;179;919557;-61
2022/11/25 02:12:25;;;;;;;80.30;37.07;;;;;;;;;;775378;180;822994;-62
2022/11/25 02:14:51;;;;;;;63.90;33.70;;;;;;;;;;770181;181;920949;-62
2022/11/25 02:17:16;;;;;;;65.50;34.13;;;;;;;;;;770747;180;919721;-60
2022/11/25 02:19:42;;;;;;;80.50;38.07;;;;;;;;;;771356;179;919431;-60
2022/11/25 02:22:08;;;;;;;75.37;38.30;;;;;;;;;;765079;179;819124;-60
2022/11/25 02:24:35;;;;;;;65.23;34.87;;;;;;;;;;770492;180;817095;-60
2022/11/25 02:27:01;;;;;;;82.73;39.07;;;;;;;;;;765906;180;918494;-63
2022/11/25 02:29:26;;;;;;;67.97;35.80;;;;;;;;;;763715;182;815670;-62
2022/11/25 02:31:52;;;;;;;65.43;35.95;;;;;;;;;;765584;180;817039;-62
2022/11/25 02:34:18;;;;;;;68.60;35.60;;;;;;;;;;766280;180;919996;-60
2022/11/25 02:36:44;;;;;;;66.27;37.00;;;;;;;;;;772082;180;909290;-59
2022/11/25 02:39:10;;;;;;;77.73;33.33;;;;;;;;;;770511;180;914717;-61
2022/11/25 02:41:37;;;;;;;68.40;35.13;;;;;;;;;;771785;180;813230;-60
2022/11/25 02:44:03;;;;;;;68.93;37.07;;;;;;;;;;773882;180;919060;-61
2022/11/25 02:46:29;;;;;;;70.43;37.70;;;;;;;;;;772844;178;913147;-61
2022/11/25 02:48:54;;;;;;;61.90;34.67;;;;;;;;;;772604;180;922172;-60
2022/11/25 02:51:20;;;;;;;70.50;33.23;;;;;;;;;;776377;179;917550;-62
2022/11/25 02:53:46;;;;;;;65.83;33.37;;;;;;;;;;765439;179;919862;-60
2022/11/25 02:56:12;;;;;;;66.40;34.22;;;;;;;;;;755025;184;917519;-61
2022/11/25 02:58:38;;;;;;;56.53;30.60;;;;;;;;;;767441;180;919928;-61
2022/11/25 03:01:03;;;;;;;59.37;33.20;;;;;;;;;;760269;182;918541;-61
2022/11/25 03:03:29;;;;;;;66.80;34.58;;;;;;;;;;760711;182;1021777;-61
2022/11/25 03:05:55;;;;;;;67.50;34.73;;;;;;;;;;767900;181;928336;-60
2022/11/25 03:08:21;;;;;;;56.10;30.97;;;;;;;;;;776109;180;919012;-62
2022/11/25 03:10:47;;;;;;;57.57;33.30;;;;;;;;;;772282;180;922818;-62
2022/11/25 03:13:13;;;;;;;58.93;31.60;;;;;;;;;;769686;180;918498;-60
2022/11/25 03:15:38;;;;;;;58.77;30.43;;;;;;;;;;768175;180;918540;-59
2022/11/25 03:18:04;;;;;;;52.80;30.10;;;;;;;;;;754604;184;927519;-60
2022/11/25 03:20:30;;;;;;;61.30;32.20;;;;;;;;;;764222;179;919112;-61
2022/11/25 03:22:57;;;;;;;52.17;27.40;;;;;;;;;;774465;180;895695;-61
2022/11/25 03:25:22;;;;;;;53.57;30.93;;;;;;;;;;769287;180;875327;-60
2022/11/25 03:27:48;;;;;;;46.60;27.87;;;;;;;;;;763996;180;817026;-63
2022/11/25 03:30:14;;;;;;;50.50;29.55;;;;;;;;;;757026;183;901474;-62
2022/11/25 03:32:40;;;;;;;56.47;28.53;;;;;;;;;;767069;181;898968;-62
2022/11/25 03:35:06;;;;;;;54.33;28.30;;;;;;;;;;763572;181;916176;-62
2022/11/25 03:37:32;;;;;;;58.00;30.60;;;;;;;;;;769176;180;918248;-60
2022/11/25 03:39:58;;;;;;;55.83;28.10;;;;;;;;;;773312;180;921249;-60
2022/11/25 03:42:24;;;;;;;54.87;28.40;;;;;;;;;;763989;180;918645;-60
2022/11/25 03:44:50;;;;;;;54.65;27.70;;;;;;;;;;767419;180;921965;-60
2022/11/25 03:47:15;;;;;;;56.00;29.93;;;;;;;;;;774545;180;923452;-63
2022/11/25 03:49:41;;;;;;;53.47;29.60;;;;;;;;;;770784;180;918276;-64
2022/11/25 03:52:07;;;;;;;47.58;26.58;;;;;;;;;;771107;180;920934;-60
2022/11/25 03:54:33;;;;;;;59.10;31.43;;;;;;;;;;769879;180;925873;-62
2022/11/25 03:56:59;;;;;;;62.60;30.50;;;;;;;;;;771036;180;921597;-61
2022/11/25 03:59:25;;;;;;;51.92;28.48;;;;;;;;;;770353;180;921159;-64
2022/11/25 04:01:51;;;;;;;52.17;27.10;;;;;;;;;;770049;179;917587;-63
2022/11/25 04:04:16;;;;;;;44.80;26.20;;;;;;;;;;774218;180;820228;-60
2022/11/25 04:06:42;;;;;;;52.47;26.23;;;;;;;;;;769454;180;915754;-64
2022/11/25 04:09:08;;;;;;;54.53;27.00;;;;;;;;;;769011;180;816832;-64
2022/11/25 04:14:06;;;;;;;53.93;28.00;;;;;;;;;;767492;183;915742;-64
2022/11/25 04:16:31;;;;;;;60.50;28.67;;;;;;;;;;766872;179;886794;-63
2022/11/25 04:18:57;;;;;;;47.87;27.27;;;;;;;;;;768771;180;820570;-63
2022/11/25 04:21:23;;;;;;;55.67;28.37;;;;;;;;;;775556;180;923270;-64
2022/11/25 04:23:49;;;;;;;49.60;27.03;;;;;;;;;;768915;180;849319;-61
2022/11/25 04:26:15;;;;;;;56.27;29.90;;;;;;;;;;757797;183;846678;-64
2022/11/25 04:28:41;;;;;;;49.20;25.60;;;;;;;;;;769675;181;880722;-62
2022/11/25 04:31:07;;;;;;;51.27;27.40;;;;;;;;;;759281;180;922116;-64
2022/11/25 04:33:32;;;;;;;64.17;30.00;;;;;;;;;;757987;183;916094;-64
2022/11/25 04:35:58;;;;;;;56.27;31.83;;;;;;;;;;766113;180;919068;-64
2022/11/25 04:38:24;;;;;;;59.23;29.50;;;;;;;;;;769552;181;816738;-65
2022/11/25 04:40:50;;;;;;;50.17;28.13;;;;;;;;;;762160;181;937266;-62
2022/11/25 04:43:16;;;;;;;52.37;29.13;;;;;;;;;;768626;179;913038;-62
2022/11/25 04:45:42;;;;;;;59.87;31.73;;;;;;;;;;771868;180;818347;-61
2022/11/25 04:48:07;;;;;;;53.13;30.90;;;;;;;;;;766592;180;922137;-62
2022/11/25 04:50:33;;;;;;;53.53;26.60;;;;;;;;;;767790;180;901184;-62
2022/11/25 04:52:59;;;;;;;52.17;27.70;;;;;;;;;;773522;180;814337;-66
2022/11/25 04:55:25;;;;;;;61.47;30.03;;;;;;;;;;765895;180;924402;-64
2022/11/25 04:57:51;;;;;;;57.50;27.77;;;;;;;;;;752814;184;819437;-65
2022/11/25 05:00:18;;;;;;;59.07;28.70;;;;;;;;;;769782;179;810168;-64
2022/11/25 05:02:43;;;;;;;50.53;27.40;;;;;;;;;;773722;180;815361;-62
2022/11/25 05:05:10;;;;;;;53.33;26.97;;;;;;;;;;760438;182;632663;-65
2022/11/25 05:07:35;;;;;;;49.67;27.27;;;;;;;;;;768503;181;932149;-65
2022/11/25 05:10:01;;;;;;;49.70;27.40;;;;;;;;;;777713;180;816320;-62
2022/11/25 05:12:27;;;;;;;53.80;27.23;;;;;;;;;;768072;179;919263;-61
2022/11/25 05:14:53;;;;;;;52.87;26.73;;;;;;;;;;767658;179;918373;-61
2022/11/25 05:17:19;;;;;;;52.37;26.77;;;;;;;;;;771335;180;920115;-65
2022/11/25 05:19:45;;;;;;;45.53;25.30;;;;;;;;;;768371;179;918986;-64
2022/11/25 05:22:10;;;;;;;53.77;28.07;;;;;;;;;;772070;180;918132;-65
2022/11/25 05:24:36;;;;;;;53.50;27.70;;;;;;;;;;776282;180;927300;-65
2022/11/25 05:27:02;;;;;;;52.20;27.10;;;;;;;;;;768019;180;915591;-64
2022/11/25 05:29:28;;;;;;;47.13;26.00;;;;;;;;;;766931;181;914398;-62
2022/11/25 05:31:54;;;;;;;43.80;26.17;;;;;;;;;;770801;180;917011;-64
2022/11/25 05:34:20;;;;;;;50.17;27.70;;;;;;;;;;778808;180;858274;-64
2022/11/25 05:36:46;;;;;;;51.70;26.83;;;;;;;;;;762030;180;918947;-64
2022/11/25 05:39:11;;;;;;;52.60;26.47;;;;;;;;;;754936;182;910887;-62
2022/11/25 05:41:37;;;;;;;50.13;26.20;;;;;;;;;;758509;184;919798;-64
2022/11/25 05:44:04;;;;;;;55.83;28.47;;;;;;;;;;747983;186;919085;-62
2022/11/25 05:46:29;;;;;;;47.83;25.73;;;;;;;;;;769444;180;926615;-62
2022/11/25 05:48:55;;;;;;;49.80;27.13;;;;;;;;;;774182;180;919913;-66
2022/11/25 05:51:21;;;;;;;53.07;29.67;;;;;;;;;;770169;181;917625;-62
2022/11/25 05:53:46;;;;;;;41.67;25.13;;;;;;;;;;770776;180;816074;-65
2022/11/25 05:56:12;;;;;;;52.77;29.27;;;;;;;;;;773454;179;619249;-62
2022/11/25 05:58:38;;;;;;;54.30;28.63;;;;;;;;;;760585;184;618670;-62
2022/11/25 06:01:05;;;;;;;55.47;28.48;;;;;;;;;;754961;181;919185;-66
2022/11/25 06:03:31;;;;;;;55.40;27.60;;;;;;;;;;760308;183;915295;-63
2022/11/25 06:05:57;;;;;;;46.87;26.20;;;;;;;;;;774120;180;942265;-62
2022/11/25 06:08:23;;;;;;;55.70;28.67;;;;;;;;;;771672;180;819137;-62
2022/11/25 06:10:48;;;;;;;58.73;29.27;;;;;;;;;;770370;180;918039;-66
2022/11/25 06:13:14;;;;;;;47.83;26.77;;;;;;;;;;771432;179;915670;-67
2022/11/25 06:15:41;;;;;;;53.47;29.13;;;;;;;;;;768577;180;922790;-66
2022/11/25 06:18:06;;;;;;;52.30;30.17;;;;;;;;;;769560;179;919265;-65
2022/11/25 06:20:32;;;;;;;50.88;26.60;;;;;;;;;;760827;181;915391;-62
2022/11/25 06:22:58;;;;;;;62.40;28.60;;;;;;;;;;770268;180;916569;-65
2022/11/25 06:25:24;;;;;;;55.57;29.07;;;;;;;;;;767250;179;899356;-65
2022/11/25 06:27:50;;;;;;;59.57;29.10;;;;;;;;;;769770;180;922446;-62
2022/11/25 06:30:16;;;;;;;55.77;30.80;;;;;;;;;;775033;180;917532;-65
2022/11/25 06:32:42;;;;;;;49.80;28.90;;;;;;;;;;769418;179;918315;-65
2022/11/25 06:35:07;;;;;;;66.53;31.75;;;;;;;;;;771491;180;917407;-62
2022/11/25 06:37:33;;;;;;;57.27;28.43;;;;;;;;;;777179;179;713544;-67
2022/11/25 06:39:59;;;;;;;66.40;31.60;;;;;;;;;;770689;180;911209;-62
2022/11/25 06:42:25;;;;;;;52.27;27.80;;;;;;;;;;769386;180;922171;-62
2022/11/25 06:44:51;;;;;;;56.90;30.57;;;;;;;;;;770665;180;919654;-65
2022/11/25 06:47:17;;;;;;;47.97;28.60;;;;;;;;;;766166;180;923674;-62
2022/11/25 06:49:43;;;;;;;57.17;31.47;;;;;;;;;;759099;180;920754;-60
2022/11/25 06:52:08;;;;;;;54.13;30.20;;;;;;;;;;754501;184;921130;-62
2022/11/25 06:54:35;;;;;;;52.00;27.73;;;;;;;;;;769312;180;781254;-61
2022/11/25 06:57:00;;;;;;;52.00;29.00;;;;;;;;;;767067;180;918535;-62
2022/11/25 06:59:26;;;;;;;57.03;29.20;;;;;;;;;;767669;180;918951;-65
2022/11/25 07:01:52;;;;;;;53.17;28.37;;;;;;;;;;774829;180;919005;-66
2022/11/25 07:04:18;;;;;;;60.27;32.60;;;;;;;;;;767689;181;918046;-61
2022/11/25 07:06:44;;;;;;;51.65;27.85;;;;;;;;;;767677;180;919720;-67
2022/11/25 07:09:10;;;;;;;60.87;31.97;;;;;;;;;;773176;180;917557;-61
2022/11/25 07:11:36;;;;;;;51.83;29.57;;;;;;;;;;768395;179;889943;-66
2022/11/25 07:14:02;;;;;;;60.77;33.17;;;;;;;;;;769787;180;923239;-66
2022/11/25 07:16:28;;;;;;;59.43;32.30;;;;;;;;;;771202;180;918362;-61
2022/11/25 07:18:54;;;;;;;55.10;28.87;;;;;;;;;;773640;180;919517;-61
2022/11/25 07:21:20;;;;;;;51.63;28.37;;;;;;;;;;769444;180;919146;-66
2022/11/25 07:23:46;;;;;;;58.23;30.87;;;;;;;;;;770121;181;844465;-61
2022/11/25 07:26:13;;;;;;;51.37;27.67;;;;;;;;;;773155;180;915353;-61
2022/11/25 07:28:39;;;;;;;56.20;31.03;;;;;;;;;;766944;180;917849;-61
2022/11/25 07:31:08;;;;;;;57.50;30.33;;;;;;;;;;769193;180;920148;-61
2022/11/25 07:33:34;;;;;;;62.37;32.23;;;;;;;;;;771663;178;922502;-62
2022/11/25 07:36:03;;;;;;;61.10;32.03;;;;;;;;;;758114;182;919585;-64
2022/11/25 07:38:28;;;;;;;57.53;31.80;;;;;;;;;;735930;187;899496;-62
2022/11/25 07:40:54;;;;;;;57.40;29.13;;;;;;;;;;748706;185;905906;-60
2022/11/25 07:43:20;;;;;;;55.17;29.67;;;;;;;;;;750751;185;917695;-66
2022/11/25 07:45:46;;;;;;;52.33;29.13;;;;;;;;;;770615;180;918750;-61
2022/11/25 07:48:12;;;;;;;57.47;30.70;;;;;;;;;;767528;180;919064;-64
2022/11/25 07:50:38;;;;;;;61.97;29.83;;;;;;;;;;775218;180;910884;-66
2022/11/25 07:53:03;;;;;;;49.40;27.57;;;;;;;;;;773592;180;795832;-61
2022/11/25 07:55:29;;;;;;;49.55;30.10;;;;;;;;;;759914;183;895167;-64
2022/11/25 07:57:55;;;;;;;53.40;28.33;;;;;;;;;;764884;183;847219;-65
2022/11/25 08:00:22;;;;;;;46.17;27.10;;;;;;;;;;772186;183;919216;-65
2022/11/25 08:02:47;;;;;;;51.20;28.00;;;;;;;;;;769088;180;920734;-62
2022/11/25 08:05:13;;;;;;;49.50;27.83;;;;;;;;;;774152;180;917194;-66
2022/11/25 08:07:39;;;;;;;47.90;26.90;;;;;;;;;;780975;180;918971;-65
2022/11/25 08:10:05;;;;;;;51.57;29.17;;;;;;;;;;776919;180;816954;-61
2022/11/25 08:12:31;;;;;;;46.37;26.40;;;;;;;;;;774752;180;919178;-61
2022/11/25 08:14:57;;;;;;;56.83;30.87;;;;;;;;;;770223;181;919024;-61
2022/11/25 08:17:23;;;;;;;53.90;31.37;;;;;;;;;;769387;180;921467;-66
2022/11/25 08:19:48;;;;;;;48.27;27.07;;;;;;;;;;763268;180;927616;-65
2022/11/25 08:22:14;;;;;;;52.73;28.70;;;;;;;;;;772450;180;919024;-62
2022/11/25 08:24:40;;;;;;;47.17;26.57;;;;;;;;;;768470;182;817415;-61
2022/11/25 08:27:06;;;;;;;46.87;27.77;;;;;;;;;;759683;182;910539;-61
2022/11/25 08:29:32;;;;;;;48.73;24.87;;;;;;;;;;766843;180;816832;-65
2022/11/25 08:31:58;;;;;;;44.53;26.07;;;;;;;;;;775129;180;918771;-61
2022/11/25 08:34:23;;;;;;;50.23;24.00;;;;;;;;;;772335;180;919451;-62
2022/11/25 08:36:49;;;;;;;59.40;26.00;;;;;;;;;;773958;181;816747;-61
2022/11/25 08:39:15;;;;;;;51.60;28.67;;;;;;;;;;776468;180;918492;-65
2022/11/25 08:41:41;;;;;;;42.90;24.37;;;;;;;;;;770953;180;918357;-65
2022/11/25 08:44:07;;;;;;;41.47;23.23;;;;;;;;;;772279;180;918651;-64
2022/11/25 08:46:35;;;;;;;39.83;23.40;;;;;;;;;;767586;182;919133;-65
2022/11/25 08:48:59;;;;;;;44.87;26.80;;;;;;;;;;761249;182;919913;-65
2022/11/25 08:51:24;;;;;;;46.27;24.60;;;;;;;;;;762284;182;918946;-60
2022/11/25 08:53:50;;;;;;;44.10;24.50;;;;;;;;;;769568;180;914760;-62
2022/11/25 08:56:16;;;;;;;42.80;22.40;;;;;;;;;;776069;180;915790;-60
2022/11/25 08:58:42;;;;;;;44.70;24.70;;;;;;;;;;770851;180;920223;-64
2022/11/25 09:01:08;;;;;;;39.60;25.00;;;;;;;;;;769920;181;918600;-64
2022/11/25 09:03:34;;;;;;;38.40;23.60;;;;;;;;;;779083;180;916601;-60
2022/11/25 09:05:59;;;;;;;37.23;23.13;;;;;;;;;;765773;180;922911;-61
2022/11/25 09:08:25;;;;;;;39.27;24.07;;;;;;;;;;767538;180;920370;-65
2022/11/25 09:10:51;;;;;;;42.47;25.73;;;;;;;;;;764907;180;921303;-65
2022/11/25 09:13:17;;;;;;;43.17;24.63;;;;;;;;;;750159;186;919460;-61
2022/11/25 09:15:43;;;;;;;54.70;27.07;;;;;;;;;;749125;187;918086;-62
2022/11/25 09:18:09;;;;;;;47.20;24.53;;;;;;;;;;753025;185;916930;-61
2022/11/25 09:20:35;;;;;;;47.50;24.20;;;;;;;;;;768783;181;915259;-64
2022/11/25 09:23:01;;;;;;;41.17;24.10;;;;;;;;;;760079;181;919090;-61
2022/11/25 09:25:26;;;;;;;45.75;24.12;;;;;;;;;;769735;180;916656;-61
2022/11/25 09:27:52;;;;;;;35.53;23.47;;;;;;;;;;776638;180;915765;-65
2022/11/25 09:30:18;;;;;;;36.10;22.47;;;;;;;;;;774768;180;943721;-66
2022/11/25 09:32:44;;;;;;;43.87;23.80;;;;;;;;;;769260;179;918666;-64
2022/11/25 09:35:10;;;;;;;47.43;26.00;;;;;;;;;;773498;181;918331;-64
2022/11/25 09:37:35;;;;;;;43.90;23.47;;;;;;;;;;768741;180;919415;-64
2022/11/25 09:40:02;;;;;;;37.53;22.57;;;;;;;;;;759389;183;919376;-64
2022/11/25 09:47:34;;;;;;;42.60;22.97;;;;;;;;;;751206;183;919795;-59
2022/11/25 09:50:00;;;;;;;40.47;24.40;;;;;;;;;;762220;181;919410;-60
2022/11/25 09:52:26;;;;;;;45.80;25.80;;;;;;;;;;767423;181;919557;-64
2022/11/25 09:54:54;;;;;;;33.23;22.30;;;;;;;;;;780873;179;919130;-64
2022/11/25 09:57:23;;;;;;;37.00;22.20;;;;;;;;;;761639;182;817009;-60
2022/11/25 09:59:50;;;;;;;33.47;22.00;;;;;;;;;;756377;184;909442;-60
2022/11/25 10:02:16;;;;;;;31.70;21.03;;;;;;;;;;767094;180;900188;-60
2022/11/25 10:04:42;;;;;;;35.83;21.90;;;;;;;;;;765448;182;918700;-59
2022/11/25 10:07:08;;;;;;;41.30;24.80;;;;;;;;;;765535;181;922614;-65
2022/11/25 10:09:34;;;;;;;33.23;22.70;;;;;;;;;;754867;183;910127;-64
2022/11/25 10:12:01;;;;;;;37.07;23.00;;;;;;;;;;765455;182;913634;-65
2022/11/25 10:14:26;;;;;;;38.07;22.37;;;;;;;;;;759209;183;817264;-65
2022/11/25 10:16:53;;;;;;;38.10;24.17;;;;;;;;;;775093;180;918500;-63
2022/11/25 10:19:22;;;;;;;36.90;21.53;;;;;;;;;;777311;180;919598;-64
2022/11/25 10:21:47;;;;;;;34.60;21.50;;;;;;;;;;765284;180;919393;-61
2022/11/25 10:24:14;;;;;;;38.43;22.17;;;;;;;;;;762286;183;919095;-64
2022/11/25 10:26:39;;;;;;;33.17;20.13;;;;;;;;;;761335;183;918953;-64
2022/11/25 10:29:05;;;;;;;29.48;18.23;;;;;;;;;;769062;182;920263;-60
2022/11/25 10:31:32;;;;;;;34.70;21.80;;;;;;;;;;759346;182;919645;-64
2022/11/25 10:33:58;;;;;;;26.35;17.00;;;;;;;;;;759205;182;921136;-60
2022/11/25 10:36:23;;;;;;;27.70;17.80;;;;;;;;;;769214;182;920782;-64
2022/11/25 10:38:49;;;;;;;27.37;17.67;;;;;;;;;;763005;182;919082;-60
2022/11/25 10:41:15;;;;;;;20.67;11.87;;;;;;;;;;764624;182;918915;-65
2022/11/25 10:43:41;;;;;;;18.80;11.17;;;;;;;;;;770996;182;819961;-65
2022/11/25 10:46:24;;;;;;;18.60;11.70;;;;;;;;;;771801;179;912801;-60
2022/11/25 10:48:50;;;;;;;20.40;13.73;;;;;;;;;;754282;181;916910;-59
2022/11/25 10:51:20;;;;;;;20.30;12.30;;;;;;;;;;767662;181;914005;-60
2022/11/25 10:53:52;;;;;;;18.93;12.53;;;;;;;;;;760469;180;818568;-61
2022/11/25 10:56:18;;;;;;;17.80;11.40;;;;;;;;;;770268;183;937388;-65
2022/11/25 10:58:45;;;;;;;21.80;12.00;;;;;;;;;;761194;181;915518;-66
2022/11/25 11:01:13;;;;;;;22.37;12.60;;;;;;;;;;753741;185;913372;-61
2022/11/25 11:03:39;;;;;;;18.80;10.63;;;;;;;;;;764489;180;912938;-65
2022/11/25 11:06:06;;;;;;;16.90;11.05;;;;;;;;;;778415;180;917029;-61
2022/11/25 11:08:35;;;;;;;17.00;11.83;;;;;;;;;;767611;179;919288;-66
2022/11/25 11:11:10;;;;;;;19.70;14.45;;;;;;;;;;756601;182;919169;-60
2022/11/25 11:13:36;;;;;;;15.75;10.77;;;;;;;;;;770642;180;919074;-61
2022/11/25 11:16:02;;;;;;;16.90;11.10;;;;;;;;;;777676;180;916091;-66
2022/11/25 11:18:27;;;;;;;19.23;12.53;;;;;;;;;;772340;180;918463;-61
2022/11/25 11:20:54;;;;;;;17.08;10.90;;;;;;;;;;759089;183;919439;-61
2022/11/25 11:23:20;;;;;;;17.87;11.67;;;;;;;;;;753728;187;915967;-66
2022/11/25 11:25:56;;;;;;;18.77;9.67;;;;;;;;;;746945;184;919007;-62
2022/11/25 11:28:37;;;;;;;16.90;10.40;;;;;;;;;;740410;189;886673;-64
2022/11/25 11:31:08;;;;;;;15.93;10.10;;;;;;;;;;746096;187;916306;-66
2022/11/25 11:33:34;;;;;;;18.23;10.17;;;;;;;;;;770438;181;920693;-62
2022/11/25 11:35:59;;;;;;;17.13;11.40;;;;;;;;;;771258;179;917460;-66
2022/11/25 11:38:28;;;;;;;23.93;13.10;;;;;;;;;;764832;180;915143;-65
2022/11/25 11:40:55;;;;;;;22.37;13.97;;;;;;;;;;770934;180;926727;-62
2022/11/25 11:43:29;;;;;;;23.10;12.05;;;;;;;;;;767608;180;916707;-61
2022/11/25 11:45:55;;;;;;;19.87;12.00;;;;;;;;;;774681;180;916121;-66
2022/11/25 11:48:27;;;;;;;17.85;11.57;;;;;;;;;;765793;180;920488;-66
2022/11/25 11:50:52;;;;;;;21.70;12.70;;;;;;;;;;765248;180;916131;-60
2022/11/25 11:53:22;;;;;;;19.08;10.85;;;;;;;;;;769901;180;915106;-60
2022/11/25 11:56:03;;;;;;;15.30;11.80;;;;;;;;;;776083;180;920931;-64
2022/11/25 11:58:47;;;;;;;17.47;11.80;;;;;;;;;;749747;184;918327;-61
2022/11/25 12:01:19;;;;;;;21.92;13.68;;;;;;;;;;769774;180;918301;-62
2022/11/25 12:03:44;;;;;;;20.53;12.83;;;;;;;;;;769877;180;916595;-62
2022/11/25 12:06:09;;;;;;;20.50;11.93;;;;;;;;;;760953;181;930069;-62
2022/11/25 12:08:37;;;;;;;21.90;12.87;;;;;;;;;;767935;181;918066;-62
2022/11/25 12:11:04;;;;;;;22.33;14.03;;;;;;;;;;776572;180;805960;-62
2022/11/25 12:13:36;;;;;;;20.20;12.80;;;;;;;;;;769436;179;618925;-62
2022/11/25 12:16:06;;;;;;;26.57;14.40;;;;;;;;;;760134;180;921395;-60
2022/11/25 12:18:33;;;;;;;24.15;13.80;;;;;;;;;;758236;183;927476;-65
2022/11/25 12:21:01;;;;;;;23.50;14.03;;;;;;;;;;771490;180;817429;-62
2022/11/25 12:23:32;;;;;;;28.57;15.13;;;;;;;;;;773497;180;816405;-66
2022/11/25 12:25:58;;;;;;;24.00;15.27;;;;;;;;;;757965;182;914228;-62
2022/11/25 12:28:23;;;;;;;22.20;14.20;;;;;;;;;;765626;180;916626;-66
2022/11/25 12:30:50;;;;;;;22.60;14.90;;;;;;;;;;770143;179;918332;-62
2022/11/25 12:33:19;;;;;;;21.70;13.33;;;;;;;;;;764924;181;813979;-62
2022/11/25 12:35:45;;;;;;;26.30;13.43;;;;;;;;;;767660;180;919592;-62
2022/11/25 12:38:13;;;;;;;22.30;13.37;;;;;;;;;;775708;180;919423;-67
2022/11/25 12:40:45;;;;;;;33.70;14.90;;;;;;;;;;768116;179;919655;-62
2022/11/25 12:43:29;;;;;;;22.50;15.00;;;;;;;;;;766724;180;922812;-62
2022/11/25 12:45:54;;;;;;;24.55;13.73;;;;;;;;;;761647;180;918751;-61
2022/11/25 12:48:20;;;;;;;23.40;14.67;;;;;;;;;;761005;180;920790;-66
2022/11/25 12:50:47;;;;;;;19.23;12.80;;;;;;;;;;767932;180;919170;-61
2022/11/25 12:53:14;;;;;;;24.33;14.80;;;;;;;;;;767830;181;921776;-62
2022/11/25 12:55:40;;;;;;;24.37;13.70;;;;;;;;;;773555;180;921355;-61
2022/11/25 12:58:09;;;;;;;19.40;13.10;;;;;;;;;;773597;179;925058;-62
2022/11/25 13:00:46;;;;;;;23.60;12.97;;;;;;;;;;770008;181;630149;-65
2022/11/25 13:03:27;;;;;;;20.23;13.10;;;;;;;;;;768188;180;919322;-65
2022/11/25 13:05:59;;;;;;;21.73;13.60;;;;;;;;;;757901;180;919761;-67
2022/11/25 13:08:27;;;;;;;24.40;14.30;;;;;;;;;;768036;180;920979;-66
2022/11/25 13:10:54;;;;;;;26.10;16.13;;;;;;;;;;755325;180;917860;-66
2022/11/25 13:13:23;;;;;;;29.60;16.43;;;;;;;;;;760083;184;914791;-62
2022/11/25 13:15:49;;;;;;;26.13;15.83;;;;;;;;;;764247;182;922074;-65
2022/11/25 13:18:17;;;;;;;24.77;17.45;;;;;;;;;;766266;180;920104;-66
2022/11/25 13:20:44;;;;;;;26.90;16.63;;;;;;;;;;771687;180;918572;-61
2022/11/25 13:23:25;;;;;;;27.90;16.20;;;;;;;;;;772576;181;854918;-65
2022/11/25 13:25:52;;;;;;;30.30;17.83;;;;;;;;;;768364;180;918260;-62
2022/11/25 13:28:35;;;;;;;30.87;17.73;;;;;;;;;;766286;180;877426;-62
2022/11/25 13:31:07;;;;;;;29.25;15.82;;;;;;;;;;753423;181;935213;-66
2022/11/25 13:33:39;;;;;;;27.20;15.23;;;;;;;;;;752410;179;919276;-67
2022/11/25 13:36:05;;;;;;;29.10;18.27;;;;;;;;;;765240;178;918767;-66
2022/11/25 13:38:35;;;;;;;36.80;18.42;;;;;;;;;;768954;182;816467;-66
2022/11/25 13:41:02;;;;;;;26.40;17.30;;;;;;;;;;768120;180;931363;-67
2022/11/25 13:43:28;;;;;;;36.27;18.53;;;;;;;;;;760122;179;919332;-66
2022/11/25 13:45:54;;;;;;;33.30;18.93;;;;;;;;;;766493;181;942057;-62
2022/11/25 13:48:20;;;;;;;32.77;19.40;;;;;;;;;;775142;180;920490;-61
2022/11/25 13:50:45;;;;;;;30.17;20.27;;;;;;;;;;772083;180;920974;-66
2022/11/25 13:53:17;;;;;;;40.13;20.30;;;;;;;;;;769593;179;922168;-61
2022/11/25 13:55:43;;;;;;;36.77;21.03;;;;;;;;;;768895;179;918805;-65
2022/11/25 13:58:18;;;;;;;35.17;18.23;;;;;;;;;;767813;179;918315;-62
2022/11/25 14:00:48;;;;;;;35.53;20.43;;;;;;;;;;768645;181;922747;-62
2022/11/25 14:03:33;;;;;;;37.50;21.67;;;;;;;;;;765369;180;918303;-66
2022/11/25 14:06:18;;;;;;;33.67;20.47;;;;;;;;;;768490;180;816848;-63
2022/11/25 14:08:50;;;;;;;39.03;21.37;;;;;;;;;;766105;180;918919;-65
2022/11/25 14:11:17;;;;;;;44.07;24.57;;;;;;;;;;771730;179;918500;-62